KTVF/TVF METAR and TAF weather

Enter ICAO airport designator
Station Type Date Time Source
KTVF METAR 2022/06/28 13:56 UTC NOAA

KTVF 281356Z AUTO 04007KT 10SM BKN048 16/09 A3014 RMK AO2 SLP206 T01610089


Station Type Date Time Source
KTVF Decoded METAR 2022/06/28 13:56 UTC NOAA

Thief River Falls, Thief River Falls Regional Airport, MN, United States (KTVF) 48-04N 096-11W
Jun 28, 2022 - 09:56 AM EDT / 2022.06.28 1356 UTC
Wind: from the NE (040 degrees) at 8 MPH (7 KT):0
Visibility: 10 mile(s):0
Sky conditions: mostly cloudy
Temperature: 61.0 F (16.1 C)
Dew Point: 48.0 F (8.9 C)
Relative Humidity: 62%
Pressure (altimeter): 30.14 in. Hg (1020 hPa)
ob: KTVF 281356Z AUTO 04007KT 10SM BKN048 16/09 A3014 RMK AO2 SLP206 T01610089
cycle: 14

Station Type Date Time Source
KTVF TAF 2022/06/28 12:36 UTC NOAA

TAF KTVF 281133Z 2812/2912 02008KT P6SM BKN080
FM281800 35010KT P6SM BKN080
FM290400 01005KT P6SM SCT080
FM290600 07005KT P6SM SKC
FM290800 10005KT P6SM FEW250

Example: see airport list